METAR Data
IDs: Format: Raw Decoded Include TAF

Data at: 2051 UTC 19 May 2019

KMXO 192035Z AUTO 28014G21KT 10SM OVC019 14/12 A2969 RMK AO2
KMXO 192015Z AUTO 28016G22KT 10SM OVC018 14/12 A2968 RMK AO2
KMXO 191955Z AUTO 28014G20KT 10SM OVC019 15/12 A2967 RMK AO2
KMXO 191935Z AUTO 28015G22KT 10SM OVC018 15/12 A2966 RMK AO2
KMXO 191915Z AUTO 29013G19KT 10SM OVC018 15/12 A2965 RMK AO2
KMXO 191855Z AUTO 27016KT 10SM BKN017 OVC021 15/13 A2964 RMK AO2
KMXO 191835Z AUTO 28015G21KT 10SM BKN017 OVC022 15/13 A2965 RMK AO2
KMXO 191815Z AUTO 28015G22KT 10SM OVC017 15/12 A2964 RMK AO2
KMXO 191755Z AUTO 28013G19KT 10SM OVC015 14/12 A2963 RMK AO2
KMXO 191735Z AUTO 26016KT 10SM OVC013 14/12 A2963 RMK AO2
KMXO 191715Z AUTO 27013G18KT 10SM OVC013 13/12 A2963 RMK AO2
KMXO 191655Z AUTO 28014G20KT 10SM BKN013 OVC065 13/12 A2961 RMK AO2
KMXO 191635Z AUTO 27013G19KT 10SM BKN014 BKN065 BKN085 13/12 A2960 RMK AO2
KMXO 191615Z AUTO 27014G20KT 10SM OVC013 13/12 A2959 RMK AO2
KMXO 191555Z AUTO 26015G21KT 10SM BKN012 14/13 A2958 RMK AO2 P0001
KMXO 191535Z AUTO 27014G20KT 10SM SCT009 SCT013 12/12 A2957 RMK AO2
KMXO 191515Z AUTO 29015G22KT 5SM -RA SCT012 12/12 A2956 RMK AO2
KMXO 191455Z AUTO 27016KT 9SM -DZ BKN012 BKN023 BKN065 13/13 A2956 RMK AO2 P0001
KMXO 191435Z AUTO 25015KT 10SM FEW008 BKN012 OVC021 14/14 A2956 RMK AO2
KMXO 191415Z AUTO 26013KT 10SM BKN008 OVC011 15/15 A2953 RMK AO2
KMXO 191355Z AUTO 25009G19KT 4SM BR BKN008 OVC014 16/16 A2953 RMK AO2
KMXO 191335Z AUTO 21014KT 10SM OVC014 17/16 A2952 RMK AO2
KMXO 191315Z AUTO 20009G15KT 10SM BKN016 BKN022 OVC095 17/17 A2952 RMK AO2
KMXO 191255Z AUTO 19009KT 10SM FEW025 SCT100 17/17 A2951 RMK AO2
KMXO 191235Z AUTO 17012KT 10SM FEW110 17/17 A2950 RMK AO2
KMXO 191215Z AUTO 16008KT 10SM FEW025 BKN100 16/16 A2951 RMK AO2
KMXO 191155Z AUTO 17009KT 10SM SCT013 BKN025 BKN100 16/16 A2951 RMK AO2 P0002
KMXO 191135Z AUTO 18008KT 9SM BKN013 BKN019 OVC110 17/17 A2952 RMK AO2
KMXO 191115Z AUTO 22007G12KT 9SM FEW005 SCT013 BKN019 17/17 A2951 RMK AO2
KMXO 191055Z AUTO 21009G16KT 2SM BR SCT006 BKN012 OVC018 17/17 A2952 RMK AO2 VIS 1 1/2V3
KMXO 191035Z AUTO 18012KT 7SM BKN012 BKN018 OVC024 17/17 A2951 RMK AO2
KMXO 191015Z AUTO 17011KT 9SM BKN018 OVC024 17/17 A2951 RMK AO2
KMXO 190955Z AUTO 17009KT 9SM FEW009 BKN014 OVC025 18/18 A2951 RMK AO2
KMXO 190935Z AUTO 17009KT 18/18 A2951 RMK AO2
KMXO 190915Z AUTO 17008KT 10SM FEW009 SCT013 BKN020 18/18 A2952 RMK AO2
KMXO 190855Z AUTO 19008KT 6SM BR BKN011 BKN016 OVC029 18/18 A2952 RMK AO2
KMXO 190835Z AUTO 18010KT 6SM BR OVC013 18/18 A2952 RMK AO2
KMXO 190815Z AUTO 17009KT 10SM BKN016 OVC023 18/18 A2952 RMK AO2
KMXO 190755Z AUTO 18009G15KT 10SM BKN017 OVC022 18/18 A2952 RMK AO2
KMXO 190735Z AUTO 18009KT 10SM BKN017 OVC021 18/18 A2952 RMK AO2
KMXO 190715Z AUTO 18011G16KT 10SM OVC015 19/19 A2952 RMK AO2
KMXO 190655Z AUTO 17013G20KT 10SM BKN017 OVC022 19/19 A2954 RMK AO2 P0001
KMXO 190635Z AUTO 14011KT 10SM BKN020 BKN100 BKN120 19/19 A2954 RMK AO2
KMXO 190615Z AUTO 13010KT 10SM BKN090 BKN120 19/19 A2954 RMK AO2
KMXO 190555Z AUTO 12006KT 10SM OVC085 18/18 A2954 RMK AO2
KMXO 190535Z AUTO 13003KT 10SM FEW033 BKN075 OVC085 18/18 A2955 RMK AO2
KMXO 190515Z AUTO 08005KT 9SM FEW065 BKN075 OVC095 18/18 A2954 RMK AO2
KMXO 190455Z AUTO 07006KT 10SM FEW055 SCT065 BKN070 18/18 A2954 RMK AO2
KMXO 190435Z AUTO 07006KT 10SM BKN070 OVC075 18/18 A2957 RMK AO2
KMXO 190415Z AUTO 06006KT 10SM FEW027 BKN075 OVC110 17/17 A2958 RMK AO2
KMXO 190355Z AUTO 05004KT 8SM -RA SCT033 BKN060 OVC110 17/17 A2959 RMK AO2 P0002
KMXO 190335Z AUTO 08005KT 5SM -RA SCT025 BKN034 OVC047 17/17 A2960 RMK AO2
KMXO 190315Z AUTO 05004KT 7SM -RA FEW003 SCT025 BKN034 17/17 A2961 RMK AO2
KMXO 190255Z AUTO 00000KT 10SM -DZ SCT022 BKN031 OVC042 18/18 A2962 RMK AO2 P0008
KMXO 190235Z AUTO 20003KT 5SM -RA FEW013 BKN025 OVC043 18/18 A2964 RMK AO2
KMXO 190215Z AUTO VRB05G18KT 6SM BR SCT013 BKN049 OVC095 18/18 A2964 RMK AO2
KMXO 190155Z AUTO 00000KT 8SM -RA FEW004 SCT028 BKN047 19/19 A2960 RMK AO2 P0016
KMXO 190135Z AUTO 34006G16KT 4SM RA FEW004 SCT030 BKN039 19/19 A2962 RMK AO2
KMXO 190115Z AUTO 27006KT 6SM -RA SCT031 BKN039 OVC060 19/19 A2963 RMK AO2
KMXO 190055Z AUTO 25006KT 7SM -RA SCT035 BKN041 OVC110 19/19 A2966 RMK AO2 P0009
KMXO 190035Z AUTO 24005KT 7SM -RA FEW034 SCT042 BKN065 19/19 A2965 RMK AO2
KMXO 190015Z AUTO 18010G15KT 6SM -RA FEW012 BKN046 OVC060 19/19 A2965 RMK AO2
KMXO 182355Z AUTO 17012G20KT 6SM BR FEW020 OVC047 21/20 A2965 RMK AO2 P0001
KMXO 182335Z AUTO 17011KT BKN021 BKN027 OVC045 22/20 A2964 RMK AO2
KMXO 182315Z AUTO 15008KT 10SM BKN021 BKN027 OVC090 22/21 A2965 RMK AO2
KMXO 182255Z AUTO 15010G16KT 10SM BKN021 BKN044 BKN090 22/21 A2965 RMK AO2
KMXO 182235Z AUTO 15012KT 10SM SCT020 BKN031 23/21 A2964 RMK AO2
KMXO 182215Z AUTO 16012KT 10SM FEW019 SCT027 BKN031 23/21 A2965 RMK AO2
KMXO 182155Z AUTO 17014G22KT 10SM FEW020 SCT025 BKN090 23/21 A2966 RMK AO2
KMXO 182135Z AUTO 19014G23KT 10SM SCT021 SCT027 BKN090 23/21 A2966 RMK AO2
KMXO 182115Z AUTO 17017G24KT 10SM SCT022 BKN027 23/21 A2966 RMK AO2
KMXO 182055Z AUTO 17015G23KT 10SM BKN022 BKN027 BKN085 24/21 A2966 RMK AO2
KMXO 182035Z AUTO 18013G22KT 10SM BKN021 BKN025 BKN085 24/21 A2967 RMK AO2
KMXO 182015Z AUTO 16016G21KT 10SM SCT023 BKN029 24/21 A2966 RMK AO2
KMXO 181955Z AUTO 17018G23KT 10SM SCT021 24/21 A2966 RMK AO2
KMXO 181935Z AUTO 18018G24KT 10SM BKN017 23/20 A2965 RMK AO2
KMXO 181915Z AUTO 16013G19KT 10SM BKN016 BKN021 23/21 A2965 RMK AO2
KMXO 181855Z AUTO 17016G21KT 10SM BKN014 23/21 A2964 RMK AO2
KMXO 181835Z AUTO 16015KT 10SM BKN012 22/21 A2964 RMK AO2
KMXO 181815Z AUTO 15014G20KT 10SM BKN011 20/20 A2965 RMK AO2
KMXO 181755Z AUTO 16014G20KT 10SM SCT010 20/20 A2966 RMK AO2
KMXO 181735Z AUTO 15016G21KT 8SM SCT005 19/19 A2966 RMK AO2
KMXO 181715Z AUTO 13016G23KT 5SM BR BKN005 17/17 A2966 RMK AO2
KMXO 181655Z AUTO 13015KT 8SM FEW005 18/18 A2966 RMK AO2
KMXO 181635Z AUTO 12015G23KT 7SM CLR 17/17 A2965 RMK AO2
KMXO 181615Z AUTO 12011KT 8SM CLR 15/15 A2969 RMK AO2
KMXO 181555Z AUTO 13008KT 6SM BR CLR 14/14 A2972 RMK AO2
KMXO 181535Z AUTO 12010KT 8SM SCT036 SCT043 SCT060 13/13 A2973 RMK AO2
KMXO 181515Z AUTO 13009KT 9SM BKN033 BKN038 12/12 A2975 RMK AO2
KMXO 181455Z AUTO 14007KT 8SM -RA SCT031 SCT050 BKN085 12/12 A2974 RMK AO2 P0006
KMXO 181435Z AUTO 09010KT 6SM -RA SCT044 BKN060 OVC090 11/11 A2972 RMK AO2
KMXO 181415Z AUTO 12005KT 6SM -RA SCT024 BKN041 OVC060 11/11 A2975 RMK AO2
KMXO 181355Z AUTO 14005G11KT 1 1/4SM -RA SCT003 BKN027 OVC039 11/11 A2975 RMK AO2 P0009
KMXO 181335Z AUTO 14009KT 10SM BKN040 OVC050 13/10 A2971 RMK AO2
KMXO 181315Z AUTO 12011G18KT 10SM BKN050 BKN065 12/09 A2970 RMK AO2
KMXO 181255Z AUTO 12009KT 10SM SCT055 BKN070 BKN080 11/09 A2971 RMK AO2
KMXO 181235Z AUTO 12010G15KT 10SM BKN065 11/08 A2973 RMK AO2
KMXO 181215Z AUTO 11010KT 10SM FEW065 10/07 A2974 RMK AO2
KMXO 181155Z AUTO 11009KT 10SM CLR 10/07 A2976 RMK AO2
KMXO 181135Z AUTO 12009KT 10SM CLR 10/06 A2976 RMK AO2
KMXO 181115Z AUTO 11008G13KT 10SM CLR 09/06 A2976 RMK AO2
KMXO 181055Z AUTO 11008KT 10SM CLR 09/05 A2977 RMK AO2
KMXO 181035Z AUTO 11010KT 10SM CLR 09/05 A2977 RMK AO2
KMXO 181015Z AUTO 10007KT 10SM CLR 09/05 A2978 RMK AO2
KMXO 180955Z AUTO 09006KT 10SM CLR 09/05 A2979 RMK AO2
KMXO 180935Z AUTO 10007KT 10SM CLR 09/05 A2979 RMK AO2
KMXO 180915Z AUTO 10008KT 10SM CLR 09/05 A2979 RMK AO2
KMXO 180855Z AUTO 11008KT 10SM FEW070 09/05 A2979 RMK AO2